createdAt,value
2022-09-01T00:01:45.163Z,19.10
2022-09-01T00:16:36.697Z,18.87
2022-09-01T00:31:28.678Z,18.74
2022-09-01T00:46:22.661Z,18.66
2022-09-01T01:01:17.007Z,18.70
2022-09-01T01:16:08.153Z,18.67
2022-09-01T01:30:59.494Z,18.43
2022-09-01T01:45:50.245Z,18.19
2022-09-01T02:00:41.363Z,17.93
2022-09-01T02:15:33.825Z,17.89
2022-09-01T02:30:26.088Z,17.77
2022-09-01T02:45:16.625Z,17.70
2022-09-01T03:00:07.565Z,17.59
2022-09-01T03:44:42.800Z,17.26
2022-09-01T03:59:33.183Z,17.10
2022-09-01T04:14:23.840Z,16.95
2022-09-01T04:29:14.464Z,16.90
2022-09-01T04:44:05.950Z,16.80
2022-09-01T04:58:57.334Z,16.68
2022-09-01T05:13:48.725Z,16.51
2022-09-01T05:28:40.027Z,16.58
2022-09-01T05:43:31.769Z,16.78
2022-09-01T05:58:23.687Z,17.05
2022-09-01T06:13:15.921Z,17.28
2022-09-01T06:28:08.675Z,17.56
2022-09-01T06:43:00.654Z,17.83
2022-09-01T06:58:08.267Z,18.16
2022-09-01T07:13:05.603Z,18.50
2022-09-01T07:57:21.507Z,19.63
2022-09-01T08:12:14.513Z,19.89
2022-09-01T08:27:06.924Z,20.24
2022-09-01T08:42:04.651Z,20.57
2022-09-01T08:57:15.687Z,20.91
2022-09-01T09:12:49.841Z,21.29
2022-09-01T09:27:49.422Z,21.95
2022-09-01T09:42:53.945Z,22.05
2022-09-01T09:57:48.904Z,22.37
2022-09-01T10:12:41.740Z,22.59
2022-09-01T10:27:34.514Z,22.56
2022-09-01T10:42:29.061Z,22.98
2022-09-01T10:57:43.009Z,23.31
2022-09-01T11:12:43.617Z,23.50
2022-09-01T11:27:50.280Z,23.61
2022-09-01T11:42:46.945Z,24.00
2022-09-01T11:57:38.578Z,24.09
2022-09-01T12:12:35.703Z,23.95
2022-09-01T12:27:31.214Z,24.40
2022-09-01T12:42:24.499Z,24.71
2022-09-01T12:57:32.141Z,25.38
2022-09-01T13:12:28.673Z,25.80
2022-09-01T13:27:21.532Z,25.75
2022-09-01T13:42:13.094Z,25.94
2022-09-01T13:57:05.922Z,26.26
2022-09-01T16:59:55.587Z,25.07
2022-09-01T17:14:52.742Z,24.92
2022-09-01T17:29:47.785Z,24.76
2022-09-01T17:44:42.149Z,24.68
2022-09-01T19:01:10.523Z,24.45
2022-09-01T19:16:06.599Z,23.09
2022-09-01T19:31:01.265Z,22.87
2022-09-01T19:46:13.615Z,22.70
2022-09-01T20:01:10.404Z,22.53
2022-09-01T20:16:14.655Z,22.38
2022-09-01T20:31:16.585Z,22.15
2022-09-01T20:46:10.787Z,21.98
2022-09-01T21:01:17.958Z,21.73
2022-09-01T21:16:37.620Z,21.64
2022-09-01T21:31:35.027Z,21.48
2022-09-01T21:46:26.756Z,21.33
2022-09-01T22:01:18.232Z,21.10
2022-09-01T22:16:08.924Z,20.99
2022-09-01T22:31:00.475Z,20.77
2022-09-01T22:45:52.004Z,20.63
2022-09-01T23:00:45.297Z,20.51
2022-09-01T23:15:40.247Z,20.32
2022-09-01T23:30:33.271Z,20.24
2022-09-01T23:45:25.150Z,20.05
